sensor_id;sensor_type;location;lat;lon;timestamp;P1;durP1;ratioP1;P2;durP2;ratioP2
9720;SDS011;4899;42.644;23.366;2023-02-12T00:00:39;10.30;;;8.20;;
9720;SDS011;4899;42.644;23.366;2023-02-12T00:03:06;11.13;;;7.57;;
9720;SDS011;4899;42.644;23.366;2023-02-12T00:05:31;10.53;;;8.17;;
9720;SDS011;4899;42.644;23.366;2023-02-12T00:07:58;8.40;;;7.50;;
9720;SDS011;4899;42.644;23.366;2023-02-12T00:10:24;10.97;;;8.33;;
9720;SDS011;4899;42.644;23.366;2023-02-12T00:12:52;9.53;;;6.00;;
9720;SDS011;4899;42.644;23.366;2023-02-12T00:18:03;11.17;;;8.10;;
9720;SDS011;4899;42.644;23.366;2023-02-12T00:20:29;10.50;;;6.40;;
9720;SDS011;4899;42.644;23.366;2023-02-12T00:22:54;9.07;;;6.57;;
9720;SDS011;4899;42.644;23.366;2023-02-12T00:25:20;9.40;;;7.63;;
9720;SDS011;4899;42.644;23.366;2023-02-12T00:27:45;9.00;;;6.93;;
9720;SDS011;4899;42.644;23.366;2023-02-12T00:30:11;7.67;;;6.70;;
9720;SDS011;4899;42.644;23.366;2023-02-12T00:32:36;8.87;;;7.27;;
9720;SDS011;4899;42.644;23.366;2023-02-12T00:35:02;8.73;;;6.80;;
9720;SDS011;4899;42.644;23.366;2023-02-12T00:37:28;9.03;;;6.23;;
9720;SDS011;4899;42.644;23.366;2023-02-12T00:39:53;9.20;;;6.93;;
9720;SDS011;4899;42.644;23.366;2023-02-12T00:42:19;9.73;;;7.17;;
9720;SDS011;4899;42.644;23.366;2023-02-12T00:44:44;7.67;;;6.80;;
9720;SDS011;4899;42.644;23.366;2023-02-12T00:47:10;9.50;;;6.90;;
9720;SDS011;4899;42.644;23.366;2023-02-12T00:49:35;11.80;;;7.70;;
9720;SDS011;4899;42.644;23.366;2023-02-12T00:52:01;9.60;;;6.30;;
9720;SDS011;4899;42.644;23.366;2023-02-12T00:54:29;10.07;;;6.70;;
9720;SDS011;4899;42.644;23.366;2023-02-12T00:56:56;8.27;;;7.00;;
9720;SDS011;4899;42.644;23.366;2023-02-12T00:59:22;10.97;;;6.87;;
9720;SDS011;4899;42.644;23.366;2023-02-12T01:01:49;9.43;;;7.20;;
9720;SDS011;4899;42.644;23.366;2023-02-12T01:04:16;8.37;;;6.30;;
9720;SDS011;4899;42.644;23.366;2023-02-12T01:06:42;9.37;;;6.87;;
9720;SDS011;4899;42.644;23.366;2023-02-12T01:09:08;8.43;;;6.67;;
9720;SDS011;4899;42.644;23.366;2023-02-12T01:11:33;9.80;;;6.37;;
9720;SDS011;4899;42.644;23.366;2023-02-12T01:13:59;8.47;;;6.37;;
9720;SDS011;4899;42.644;23.366;2023-02-12T01:16:24;8.00;;;6.90;;
9720;SDS011;4899;42.644;23.366;2023-02-12T01:18:50;8.70;;;6.30;;
9720;SDS011;4899;42.644;23.366;2023-02-12T01:21:21;7.73;;;6.30;;
9720;SDS011;4899;42.644;23.366;2023-02-12T01:23:50;9.83;;;7.23;;
9720;SDS011;4899;42.644;23.366;2023-02-12T01:26:16;7.50;;;6.27;;
9720;SDS011;4899;42.644;23.366;2023-02-12T01:28:44;8.97;;;7.47;;
9720;SDS011;4899;42.644;23.366;2023-02-12T01:31:14;9.27;;;6.97;;
9720;SDS011;4899;42.644;23.366;2023-02-12T01:33:42;8.30;;;7.40;;
9720;SDS011;4899;42.644;23.366;2023-02-12T01:36:08;8.23;;;6.53;;
9720;SDS011;4899;42.644;23.366;2023-02-12T01:38:35;9.23;;;7.70;;
9720;SDS011;4899;42.644;23.366;2023-02-12T01:41:20;10.20;;;7.37;;
9720;SDS011;4899;42.644;23.366;2023-02-12T01:46:41;10.63;;;7.00;;
9720;SDS011;4899;42.644;23.366;2023-02-12T01:49:10;10.73;;;8.80;;
9720;SDS011;4899;42.644;23.366;2023-02-12T01:51:43;9.07;;;7.80;;
9720;SDS011;4899;42.644;23.366;2023-02-12T01:54:11;10.17;;;8.17;;
9720;SDS011;4899;42.644;23.366;2023-02-12T01:56:39;12.60;;;8.50;;
9720;SDS011;4899;42.644;23.366;2023-02-12T01:59:05;8.77;;;6.93;;
9720;SDS011;4899;42.644;23.366;2023-02-12T02:01:32;9.60;;;8.00;;
9720;SDS011;4899;42.644;23.366;2023-02-12T02:03:59;9.03;;;7.20;;
9720;SDS011;4899;42.644;23.366;2023-02-12T02:06:37;9.73;;;7.83;;
9720;SDS011;4899;42.644;23.366;2023-02-12T02:09:10;10.63;;;7.73;;
9720;SDS011;4899;42.644;23.366;2023-02-12T02:11:36;10.10;;;8.00;;
9720;SDS011;4899;42.644;23.366;2023-02-12T02:14:22;10.00;;;7.67;;
9720;SDS011;4899;42.644;23.366;2023-02-12T02:22:24;9.00;;;6.93;;
9720;SDS011;4899;42.644;23.366;2023-02-12T02:27:31;12.30;;;8.43;;
9720;SDS011;4899;42.644;23.366;2023-02-12T02:35:31;9.93;;;8.13;;
9720;SDS011;4899;42.644;23.366;2023-02-12T02:41:02;8.30;;;6.57;;
9720;SDS011;4899;42.644;23.366;2023-02-12T02:43:43;9.10;;;7.63;;
9720;SDS011;4899;42.644;23.366;2023-02-12T02:46:15;10.50;;;8.73;;
9720;SDS011;4899;42.644;23.366;2023-02-12T02:48:47;11.33;;;8.60;;
9720;SDS011;4899;42.644;23.366;2023-02-12T02:54:36;11.37;;;8.70;;
9720;SDS011;4899;42.644;23.366;2023-02-12T02:57:30;10.97;;;8.53;;
9720;SDS011;4899;42.644;23.366;2023-02-12T03:00:10;13.23;;;9.30;;
9720;SDS011;4899;42.644;23.366;2023-02-12T03:02:47;11.60;;;8.87;;
9720;SDS011;4899;42.644;23.366;2023-02-12T03:05:24;13.57;;;9.63;;
9720;SDS011;4899;42.644;23.366;2023-02-12T03:08:00;11.50;;;8.67;;
9720;SDS011;4899;42.644;23.366;2023-02-12T03:10:37;13.10;;;9.60;;
9720;SDS011;4899;42.644;23.366;2023-02-12T03:13:08;14.67;;;9.27;;
9720;SDS011;4899;42.644;23.366;2023-02-12T03:16:28;15.10;;;10.43;;
9720;SDS011;4899;42.644;23.366;2023-02-12T03:18:58;13.67;;;9.30;;
9720;SDS011;4899;42.644;23.366;2023-02-12T03:21:41;12.00;;;9.13;;
9720;SDS011;4899;42.644;23.366;2023-02-12T03:27:02;15.63;;;10.80;;
9720;SDS011;4899;42.644;23.366;2023-02-12T03:29:33;15.50;;;11.27;;
9720;SDS011;4899;42.644;23.366;2023-02-12T03:37:07;15.37;;;11.77;;
9720;SDS011;4899;42.644;23.366;2023-02-12T03:53:17;11.47;;;7.60;;
9720;SDS011;4899;42.644;23.366;2023-02-12T03:55:43;14.67;;;11.07;;
9720;SDS011;4899;42.644;23.366;2023-02-12T03:58:14;14.30;;;10.33;;
9720;SDS011;4899;42.644;23.366;2023-02-12T04:00:44;15.53;;;11.77;;
9720;SDS011;4899;42.644;23.366;2023-02-12T04:03:10;15.17;;;10.10;;
9720;SDS011;4899;42.644;23.366;2023-02-12T04:05:36;16.87;;;11.17;;
9720;SDS011;4899;42.644;23.366;2023-02-12T04:08:03;17.13;;;12.67;;
9720;SDS011;4899;42.644;23.366;2023-02-12T04:10:34;19.10;;;11.53;;
9720;SDS011;4899;42.644;23.366;2023-02-12T04:18:19;15.87;;;11.27;;
9720;SDS011;4899;42.644;23.366;2023-02-12T04:20:53;14.23;;;12.00;;
9720;SDS011;4899;42.644;23.366;2023-02-12T04:31:23;14.07;;;10.50;;
9720;SDS011;4899;42.644;23.366;2023-02-12T04:34:05;17.17;;;11.53;;
9720;SDS011;4899;42.644;23.366;2023-02-12T04:36:39;15.33;;;11.47;;
9720;SDS011;4899;42.644;23.366;2023-02-12T04:39:11;16.33;;;11.90;;
9720;SDS011;4899;42.644;23.366;2023-02-12T04:41:43;16.40;;;12.03;;
9720;SDS011;4899;42.644;23.366;2023-02-12T04:47:04;16.07;;;11.77;;
9720;SDS011;4899;42.644;23.366;2023-02-12T04:49:30;15.73;;;10.17;;
9720;SDS011;4899;42.644;23.366;2023-02-12T04:51:55;15.17;;;11.40;;
9720;SDS011;4899;42.644;23.366;2023-02-12T04:54:21;13.70;;;10.30;;
9720;SDS011;4899;42.644;23.366;2023-02-12T04:56:48;17.97;;;11.47;;
9720;SDS011;4899;42.644;23.366;2023-02-12T04:59:14;16.07;;;12.03;;
9720;SDS011;4899;42.644;23.366;2023-02-12T05:01:40;16.00;;;12.07;;
9720;SDS011;4899;42.644;23.366;2023-02-12T05:04:07;16.60;;;12.23;;
9720;SDS011;4899;42.644;23.366;2023-02-12T05:06:34;14.97;;;11.73;;
9720;SDS011;4899;42.644;23.366;2023-02-12T05:09:00;15.63;;;11.87;;
9720;SDS011;4899;42.644;23.366;2023-02-12T05:11:26;17.10;;;12.00;;
9720;SDS011;4899;42.644;23.366;2023-02-12T05:13:52;21.17;;;13.20;;
9720;SDS011;4899;42.644;23.366;2023-02-12T05:16:18;17.23;;;11.77;;
9720;SDS011;4899;42.644;23.366;2023-02-12T05:18:45;13.90;;;11.03;;
9720;SDS011;4899;42.644;23.366;2023-02-12T05:21:11;15.77;;;10.97;;
9720;SDS011;4899;42.644;23.366;2023-02-12T05:23:37;15.23;;;10.77;;
9720;SDS011;4899;42.644;23.366;2023-02-12T05:26:05;16.40;;;10.90;;
9720;SDS011;4899;42.644;23.366;2023-02-12T05:28:32;11.10;;;8.67;;
9720;SDS011;4899;42.644;23.366;2023-02-12T05:30:59;15.73;;;9.47;;
9720;SDS011;4899;42.644;23.366;2023-02-12T05:33:26;13.60;;;9.73;;
9720;SDS011;4899;42.644;23.366;2023-02-12T05:35:51;11.63;;;8.97;;
9720;SDS011;4899;42.644;23.366;2023-02-12T05:38:17;12.23;;;10.07;;
9720;SDS011;4899;42.644;23.366;2023-02-12T05:40:42;14.53;;;10.40;;
9720;SDS011;4899;42.644;23.366;2023-02-12T05:43:08;16.03;;;11.30;;
9720;SDS011;4899;42.644;23.366;2023-02-12T05:45:33;14.07;;;10.90;;
9720;SDS011;4899;42.644;23.366;2023-02-12T05:47:59;11.40;;;9.23;;
9720;SDS011;4899;42.644;23.366;2023-02-12T05:50:24;12.20;;;9.17;;
9720;SDS011;4899;42.644;23.366;2023-02-12T05:52:50;11.80;;;9.40;;
9720;SDS011;4899;42.644;23.366;2023-02-12T05:55:15;14.17;;;10.40;;
9720;SDS011;4899;42.644;23.366;2023-02-12T05:57:41;15.50;;;11.50;;
9720;SDS011;4899;42.644;23.366;2023-02-12T06:00:07;14.30;;;11.43;;
9720;SDS011;4899;42.644;23.366;2023-02-12T06:02:34;14.17;;;11.03;;
9720;SDS011;4899;42.644;23.366;2023-02-12T06:04:59;13.47;;;11.57;;
9720;SDS011;4899;42.644;23.366;2023-02-12T06:07:25;14.50;;;12.07;;
9720;SDS011;4899;42.644;23.366;2023-02-12T06:09:50;16.33;;;10.80;;
9720;SDS011;4899;42.644;23.366;2023-02-12T06:12:16;13.23;;;10.93;;
9720;SDS011;4899;42.644;23.366;2023-02-12T06:14:41;11.23;;;8.97;;
9720;SDS011;4899;42.644;23.366;2023-02-12T06:17:07;13.87;;;9.60;;
9720;SDS011;4899;42.644;23.366;2023-02-12T06:19:33;12.60;;;8.37;;
9720;SDS011;4899;42.644;23.366;2023-02-12T06:21:58;12.83;;;9.20;;
9720;SDS011;4899;42.644;23.366;2023-02-12T06:24:24;12.23;;;10.03;;
9720;SDS011;4899;42.644;23.366;2023-02-12T06:26:50;12.20;;;9.43;;
9720;SDS011;4899;42.644;23.366;2023-02-12T06:29:16;12.03;;;10.23;;
9720;SDS011;4899;42.644;23.366;2023-02-12T06:31:42;12.93;;;9.80;;
9720;SDS011;4899;42.644;23.366;2023-02-12T06:34:09;13.30;;;9.83;;
9720;SDS011;4899;42.644;23.366;2023-02-12T06:36:37;11.87;;;10.57;;
9720;SDS011;4899;42.644;23.366;2023-02-12T06:39:04;11.57;;;9.23;;
9720;SDS011;4899;42.644;23.366;2023-02-12T06:41:30;10.07;;;7.70;;
9720;SDS011;4899;42.644;23.366;2023-02-12T06:43:56;14.33;;;10.50;;
9720;SDS011;4899;42.644;23.366;2023-02-12T06:46:21;11.87;;;9.13;;
9720;SDS011;4899;42.644;23.366;2023-02-12T06:48:47;14.53;;;8.80;;
9720;SDS011;4899;42.644;23.366;2023-02-12T06:51:16;13.33;;;10.03;;
9720;SDS011;4899;42.644;23.366;2023-02-12T06:53:43;12.77;;;9.33;;
9720;SDS011;4899;42.644;23.366;2023-02-12T06:56:09;13.47;;;10.03;;
9720;SDS011;4899;42.644;23.366;2023-02-12T06:58:37;13.20;;;9.80;;
9720;SDS011;4899;42.644;23.366;2023-02-12T07:01:08;11.80;;;8.60;;
9720;SDS011;4899;42.644;23.366;2023-02-12T07:03:43;11.10;;;8.67;;
9720;SDS011;4899;42.644;23.366;2023-02-12T07:06:12;13.63;;;8.70;;
9720;SDS011;4899;42.644;23.366;2023-02-12T07:08:38;10.73;;;7.87;;
9720;SDS011;4899;42.644;23.366;2023-02-12T07:11:04;11.63;;;8.73;;
9720;SDS011;4899;42.644;23.366;2023-02-12T07:13:30;13.80;;;11.13;;
9720;SDS011;4899;42.644;23.366;2023-02-12T07:16:01;16.97;;;9.90;;
9720;SDS011;4899;42.644;23.366;2023-02-12T07:18:30;13.63;;;10.20;;
9720;SDS011;4899;42.644;23.366;2023-02-12T07:20:58;11.57;;;9.37;;
9720;SDS011;4899;42.644;23.366;2023-02-12T07:23:28;13.70;;;10.20;;
9720;SDS011;4899;42.644;23.366;2023-02-12T07:26:13;13.27;;;9.87;;
9720;SDS011;4899;42.644;23.366;2023-02-12T07:28:40;13.87;;;9.83;;
9720;SDS011;4899;42.644;23.366;2023-02-12T07:33:34;13.77;;;11.27;;
9720;SDS011;4899;42.644;23.366;2023-02-12T07:36:00;14.70;;;10.73;;
9720;SDS011;4899;42.644;23.366;2023-02-12T07:38:27;13.13;;;11.20;;
9720;SDS011;4899;42.644;23.366;2023-02-12T07:40:52;14.63;;;10.93;;
9720;SDS011;4899;42.644;23.366;2023-02-12T07:43:19;15.93;;;11.07;;
9720;SDS011;4899;42.644;23.366;2023-02-12T07:45:44;14.70;;;10.60;;
9720;SDS011;4899;42.644;23.366;2023-02-12T07:48:10;18.67;;;12.63;;
9720;SDS011;4899;42.644;23.366;2023-02-12T07:50:36;13.90;;;9.53;;
9720;SDS011;4899;42.644;23.366;2023-02-12T07:53:02;14.17;;;11.23;;
9720;SDS011;4899;42.644;23.366;2023-02-12T07:55:27;14.80;;;12.63;;
9720;SDS011;4899;42.644;23.366;2023-02-12T07:57:53;13.17;;;10.57;;
9720;SDS011;4899;42.644;23.366;2023-02-12T08:00:18;16.07;;;12.43;;
9720;SDS011;4899;42.644;23.366;2023-02-12T08:02:49;15.33;;;12.50;;
9720;SDS011;4899;42.644;23.366;2023-02-12T08:05:15;18.37;;;12.37;;
9720;SDS011;4899;42.644;23.366;2023-02-12T08:07:41;15.00;;;12.40;;
9720;SDS011;4899;42.644;23.366;2023-02-12T08:10:07;17.00;;;12.53;;
9720;SDS011;4899;42.644;23.366;2023-02-12T08:12:32;15.20;;;11.90;;
9720;SDS011;4899;42.644;23.366;2023-02-12T08:14:58;15.53;;;11.10;;
9720;SDS011;4899;42.644;23.366;2023-02-12T08:17:24;15.30;;;11.83;;
9720;SDS011;4899;42.644;23.366;2023-02-12T08:19:49;16.27;;;12.83;;
9720;SDS011;4899;42.644;23.366;2023-02-12T08:22:14;16.37;;;13.73;;
9720;SDS011;4899;42.644;23.366;2023-02-12T08:24:40;21.63;;;15.10;;
9720;SDS011;4899;42.644;23.366;2023-02-12T08:27:06;22.57;;;15.73;;
9720;SDS011;4899;42.644;23.366;2023-02-12T08:29:32;21.20;;;16.30;;
9720;SDS011;4899;42.644;23.366;2023-02-12T08:32:01;20.53;;;16.03;;
9720;SDS011;4899;42.644;23.366;2023-02-12T08:34:28;18.20;;;14.67;;
9720;SDS011;4899;42.644;23.366;2023-02-12T08:36:56;17.57;;;13.83;;
9720;SDS011;4899;42.644;23.366;2023-02-12T08:39:22;18.23;;;13.30;;
9720;SDS011;4899;42.644;23.366;2023-02-12T08:41:49;19.70;;;14.87;;
9720;SDS011;4899;42.644;23.366;2023-02-12T08:44:16;19.07;;;15.07;;
9720;SDS011;4899;42.644;23.366;2023-02-12T08:46:43;17.53;;;12.73;;
9720;SDS011;4899;42.644;23.366;2023-02-12T08:49:16;17.10;;;12.50;;
9720;SDS011;4899;42.644;23.366;2023-02-12T08:51:44;17.17;;;14.40;;
9720;SDS011;4899;42.644;23.366;2023-02-12T08:54:13;17.30;;;13.73;;
9720;SDS011;4899;42.644;23.366;2023-02-12T08:56:42;17.90;;;13.73;;
9720;SDS011;4899;42.644;23.366;2023-02-12T08:59:09;16.20;;;13.37;;
9720;SDS011;4899;42.644;23.366;2023-02-12T09:01:36;16.97;;;12.67;;
9720;SDS011;4899;42.644;23.366;2023-02-12T09:04:02;17.43;;;13.00;;
9720;SDS011;4899;42.644;23.366;2023-02-12T09:06:30;18.20;;;13.67;;
9720;SDS011;4899;42.644;23.366;2023-02-12T09:08:57;17.60;;;14.10;;
9720;SDS011;4899;42.644;23.366;2023-02-12T09:11:24;19.77;;;15.20;;
9720;SDS011;4899;42.644;23.366;2023-02-12T09:13:55;17.23;;;14.27;;
9720;SDS011;4899;42.644;23.366;2023-02-12T09:16:23;15.90;;;14.17;;
9720;SDS011;4899;42.644;23.366;2023-02-12T09:18:49;16.87;;;13.93;;
9720;SDS011;4899;42.644;23.366;2023-02-12T09:21:15;17.57;;;14.00;;
9720;SDS011;4899;42.644;23.366;2023-02-12T09:23:41;17.17;;;12.70;;
9720;SDS011;4899;42.644;23.366;2023-02-12T09:26:08;16.63;;;13.97;;
9720;SDS011;4899;42.644;23.366;2023-02-12T09:28:35;19.13;;;14.27;;
9720;SDS011;4899;42.644;23.366;2023-02-12T09:33:32;16.17;;;13.53;;
9720;SDS011;4899;42.644;23.366;2023-02-12T09:36:01;16.13;;;12.53;;
9720;SDS011;4899;42.644;23.366;2023-02-12T09:38:28;18.20;;;14.63;;
9720;SDS011;4899;42.644;23.366;2023-02-12T09:46:30;19.07;;;16.53;;
9720;SDS011;4899;42.644;23.366;2023-02-12T09:51:23;21.60;;;16.33;;
9720;SDS011;4899;42.644;23.366;2023-02-12T09:53:53;18.90;;;15.93;;
9720;SDS011;4899;42.644;23.366;2023-02-12T09:56:30;16.57;;;14.33;;
9720;SDS011;4899;42.644;23.366;2023-02-12T09:59:00;19.73;;;17.10;;
9720;SDS011;4899;42.644;23.366;2023-02-12T10:01:30;21.20;;;16.93;;
9720;SDS011;4899;42.644;23.366;2023-02-12T10:03:56;20.87;;;16.00;;
9720;SDS011;4899;42.644;23.366;2023-02-12T10:17:32;19.97;;;17.30;;
9720;SDS011;4899;42.644;23.366;2023-02-12T10:20:20;21.47;;;17.50;;
9720;SDS011;4899;42.644;23.366;2023-02-12T10:22:59;20.87;;;16.57;;
9720;SDS011;4899;42.644;23.366;2023-02-12T10:28:12;20.40;;;16.87;;
9720;SDS011;4899;42.644;23.366;2023-02-12T10:33:31;22.93;;;18.13;;
9720;SDS011;4899;42.644;23.366;2023-02-12T10:38:57;20.33;;;18.10;;
9720;SDS011;4899;42.644;23.366;2023-02-12T10:41:27;22.80;;;18.47;;
9720;SDS011;4899;42.644;23.366;2023-02-12T10:43:56;22.10;;;18.90;;
9720;SDS011;4899;42.644;23.366;2023-02-12T10:46:22;23.33;;;19.17;;
9720;SDS011;4899;42.644;23.366;2023-02-12T10:48:48;24.60;;;20.07;;
9720;SDS011;4899;42.644;23.366;2023-02-12T10:57:09;24.37;;;18.27;;
9720;SDS011;4899;42.644;23.366;2023-02-12T10:59:37;24.97;;;18.70;;
9720;SDS011;4899;42.644;23.366;2023-02-12T11:02:04;23.07;;;18.33;;
9720;SDS011;4899;42.644;23.366;2023-02-12T11:04:43;24.93;;;19.30;;
9720;SDS011;4899;42.644;23.366;2023-02-12T11:07:08;23.73;;;18.57;;
9720;SDS011;4899;42.644;23.366;2023-02-12T11:09:38;22.60;;;18.10;;
9720;SDS011;4899;42.644;23.366;2023-02-12T11:14:53;24.80;;;20.00;;
9720;SDS011;4899;42.644;23.366;2023-02-12T11:17:44;23.00;;;19.00;;
9720;SDS011;4899;42.644;23.366;2023-02-12T11:25:20;21.07;;;17.27;;
9720;SDS011;4899;42.644;23.366;2023-02-12T11:28:32;22.53;;;18.07;;
9720;SDS011;4899;42.644;23.366;2023-02-12T11:30:49;22.27;;;18.57;;
9720;SDS011;4899;42.644;23.366;2023-02-12T11:35:48;25.00;;;20.50;;
9720;SDS011;4899;42.644;23.366;2023-02-12T11:38:20;22.63;;;20.20;;
9720;SDS011;4899;42.644;23.366;2023-02-12T11:40:49;22.03;;;19.67;;
9720;SDS011;4899;42.644;23.366;2023-02-12T11:43:17;23.23;;;20.23;;
9720;SDS011;4899;42.644;23.366;2023-02-12T11:45:45;21.47;;;17.20;;
9720;SDS011;4899;42.644;23.366;2023-02-12T11:48:21;26.97;;;18.83;;
9720;SDS011;4899;42.644;23.366;2023-02-12T11:50:50;23.07;;;18.60;;
9720;SDS011;4899;42.644;23.366;2023-02-12T11:53:20;25.87;;;20.97;;
9720;SDS011;4899;42.644;23.366;2023-02-12T11:55:58;24.77;;;20.17;;
9720;SDS011;4899;42.644;23.366;2023-02-12T11:58:35;23.37;;;18.00;;
9720;SDS011;4899;42.644;23.366;2023-02-12T12:04:12;26.23;;;19.33;;
9720;SDS011;4899;42.644;23.366;2023-02-12T12:06:43;21.47;;;18.30;;
9720;SDS011;4899;42.644;23.366;2023-02-12T12:09:27;23.43;;;17.67;;
9720;SDS011;4899;42.644;23.366;2023-02-12T12:12:05;23.33;;;18.23;;
9720;SDS011;4899;42.644;23.366;2023-02-12T12:17:43;23.80;;;18.93;;
9720;SDS011;4899;42.644;23.366;2023-02-12T12:20:29;21.83;;;19.27;;
9720;SDS011;4899;42.644;23.366;2023-02-12T12:23:06;23.60;;;20.57;;
9720;SDS011;4899;42.644;23.366;2023-02-12T12:25:45;24.33;;;19.00;;
9720;SDS011;4899;42.644;23.366;2023-02-12T12:28:22;23.27;;;19.87;;
9720;SDS011;4899;42.644;23.366;2023-02-12T12:30:58;24.27;;;19.90;;
9720;SDS011;4899;42.644;23.366;2023-02-12T12:33:58;22.80;;;18.53;;
9720;SDS011;4899;42.644;23.366;2023-02-12T12:39:16;24.10;;;19.73;;
9720;SDS011;4899;42.644;23.366;2023-02-12T12:44:41;21.37;;;19.07;;
9720;SDS011;4899;42.644;23.366;2023-02-12T13:03:53;22.47;;;17.37;;
9720;SDS011;4899;42.644;23.366;2023-02-12T13:16:50;24.20;;;20.13;;
9720;SDS011;4899;42.644;23.366;2023-02-12T13:28:06;21.90;;;19.60;;
9720;SDS011;4899;42.644;23.366;2023-02-12T13:30:43;24.00;;;19.43;;
9720;SDS011;4899;42.644;23.366;2023-02-12T13:33:18;26.57;;;21.80;;
9720;SDS011;4899;42.644;23.366;2023-02-12T13:35:48;26.43;;;20.93;;
9720;SDS011;4899;42.644;23.366;2023-02-12T13:38:20;26.13;;;19.63;;
9720;SDS011;4899;42.644;23.366;2023-02-12T13:40:56;23.30;;;19.20;;
9720;SDS011;4899;42.644;23.366;2023-02-12T13:43:30;27.27;;;20.80;;
9720;SDS011;4899;42.644;23.366;2023-02-12T13:51:47;26.20;;;21.33;;
9720;SDS011;4899;42.644;23.366;2023-02-12T13:54:30;24.17;;;20.43;;
9720;SDS011;4899;42.644;23.366;2023-02-12T13:57:19;28.57;;;21.00;;
9720;SDS011;4899;42.644;23.366;2023-02-12T13:59:46;24.53;;;20.77;;
9720;SDS011;4899;42.644;23.366;2023-02-12T14:04:54;26.70;;;21.57;;
9720;SDS011;4899;42.644;23.366;2023-02-12T14:07:24;26.67;;;21.60;;
9720;SDS011;4899;42.644;23.366;2023-02-12T14:10:06;25.73;;;21.77;;
9720;SDS011;4899;42.644;23.366;2023-02-12T14:12:34;29.20;;;20.20;;
9720;SDS011;4899;42.644;23.366;2023-02-12T14:37:50;28.07;;;22.23;;
9720;SDS011;4899;42.644;23.366;2023-02-12T14:42:57;27.73;;;23.30;;
9720;SDS011;4899;42.644;23.366;2023-02-12T14:45:36;27.40;;;23.23;;
9720;SDS011;4899;42.644;23.366;2023-02-12T14:48:02;26.23;;;23.43;;
9720;SDS011;4899;42.644;23.366;2023-02-12T14:50:30;27.10;;;23.13;;
9720;SDS011;4899;42.644;23.366;2023-02-12T14:53:03;24.53;;;20.87;;
9720;SDS011;4899;42.644;23.366;2023-02-12T14:55:37;28.23;;;22.97;;
9720;SDS011;4899;42.644;23.366;2023-02-12T14:58:14;28.40;;;21.87;;
9720;SDS011;4899;42.644;23.366;2023-02-12T15:00:44;29.00;;;23.80;;
9720;SDS011;4899;42.644;23.366;2023-02-12T15:16:16;28.57;;;23.50;;
9720;SDS011;4899;42.644;23.366;2023-02-12T15:22:49;25.47;;;21.30;;
9720;SDS011;4899;42.644;23.366;2023-02-12T15:27:40;28.20;;;22.07;;
9720;SDS011;4899;42.644;23.366;2023-02-12T15:30:13;34.10;;;24.63;;
9720;SDS011;4899;42.644;23.366;2023-02-12T15:32:44;30.43;;;22.53;;
9720;SDS011;4899;42.644;23.366;2023-02-12T15:35:21;30.83;;;24.77;;
9720;SDS011;4899;42.644;23.366;2023-02-12T15:37:48;31.27;;;23.57;;
9720;SDS011;4899;42.644;23.366;2023-02-12T15:40:14;29.07;;;23.33;;
9720;SDS011;4899;42.644;23.366;2023-02-12T15:42:50;30.80;;;22.97;;
9720;SDS011;4899;42.644;23.366;2023-02-12T15:45:22;27.90;;;22.10;;
9720;SDS011;4899;42.644;23.366;2023-02-12T15:47:58;33.13;;;26.10;;
9720;SDS011;4899;42.644;23.366;2023-02-12T15:50:33;30.73;;;24.90;;
9720;SDS011;4899;42.644;23.366;2023-02-12T15:52:59;33.97;;;27.00;;
9720;SDS011;4899;42.644;23.366;2023-02-12T15:55:27;32.03;;;27.30;;
9720;SDS011;4899;42.644;23.366;2023-02-12T15:57:58;35.90;;;27.50;;
9720;SDS011;4899;42.644;23.366;2023-02-12T16:00:30;35.43;;;26.93;;
9720;SDS011;4899;42.644;23.366;2023-02-12T16:03:01;35.13;;;25.80;;
9720;SDS011;4899;42.644;23.366;2023-02-12T16:05:27;35.47;;;27.53;;
9720;SDS011;4899;42.644;23.366;2023-02-12T16:07:53;32.30;;;27.77;;
9720;SDS011;4899;42.644;23.366;2023-02-12T16:10:20;33.50;;;25.47;;
9720;SDS011;4899;42.644;23.366;2023-02-12T16:12:47;36.10;;;29.50;;
9720;SDS011;4899;42.644;23.366;2023-02-12T16:15:30;32.83;;;28.20;;
9720;SDS011;4899;42.644;23.366;2023-02-12T16:17:58;40.60;;;31.17;;
9720;SDS011;4899;42.644;23.366;2023-02-12T16:20:28;37.90;;;28.53;;
9720;SDS011;4899;42.644;23.366;2023-02-12T16:22:54;36.70;;;28.43;;
9720;SDS011;4899;42.644;23.366;2023-02-12T16:27:54;39.30;;;29.80;;
9720;SDS011;4899;42.644;23.366;2023-02-12T16:32:55;41.13;;;31.53;;
9720;SDS011;4899;42.644;23.366;2023-02-12T16:35:23;38.73;;;30.63;;
9720;SDS011;4899;42.644;23.366;2023-02-12T16:37:52;44.47;;;32.53;;
9720;SDS011;4899;42.644;23.366;2023-02-12T16:40:28;43.97;;;32.67;;
9720;SDS011;4899;42.644;23.366;2023-02-12T16:42:56;42.27;;;32.70;;
9720;SDS011;4899;42.644;23.366;2023-02-12T16:47:49;44.80;;;34.23;;
9720;SDS011;4899;42.644;23.366;2023-02-12T16:50:16;41.47;;;31.77;;
9720;SDS011;4899;42.644;23.366;2023-02-12T16:52:42;39.67;;;32.27;;
9720;SDS011;4899;42.644;23.366;2023-02-12T16:55:15;43.43;;;34.33;;
9720;SDS011;4899;42.644;23.366;2023-02-12T16:57:42;41.37;;;30.87;;
9720;SDS011;4899;42.644;23.366;2023-02-12T17:00:10;42.00;;;33.63;;
9720;SDS011;4899;42.644;23.366;2023-02-12T17:02:40;43.00;;;34.60;;
9720;SDS011;4899;42.644;23.366;2023-02-12T17:05:05;44.80;;;32.93;;
9720;SDS011;4899;42.644;23.366;2023-02-12T17:07:32;42.17;;;33.13;;
9720;SDS011;4899;42.644;23.366;2023-02-12T17:09:58;42.63;;;32.13;;
9720;SDS011;4899;42.644;23.366;2023-02-12T17:12:24;44.30;;;34.17;;
9720;SDS011;4899;42.644;23.366;2023-02-12T17:14:49;58.93;;;43.13;;
9720;SDS011;4899;42.644;23.366;2023-02-12T17:17:15;57.10;;;44.33;;
9720;SDS011;4899;42.644;23.366;2023-02-12T17:19:41;48.83;;;38.90;;
9720;SDS011;4899;42.644;23.366;2023-02-12T17:22:07;55.77;;;41.40;;
9720;SDS011;4899;42.644;23.366;2023-02-12T17:24:40;46.13;;;35.00;;
9720;SDS011;4899;42.644;23.366;2023-02-12T17:27:05;46.10;;;35.33;;
9720;SDS011;4899;42.644;23.366;2023-02-12T17:29:32;44.40;;;35.73;;
9720;SDS011;4899;42.644;23.366;2023-02-12T17:31:57;47.37;;;35.13;;
9720;SDS011;4899;42.644;23.366;2023-02-12T17:34:23;54.63;;;40.07;;
9720;SDS011;4899;42.644;23.366;2023-02-12T17:36:49;56.80;;;47.10;;
9720;SDS011;4899;42.644;23.366;2023-02-12T17:39:15;73.07;;;54.73;;
9720;SDS011;4899;42.644;23.366;2023-02-12T17:41:41;56.50;;;44.03;;
9720;SDS011;4899;42.644;23.366;2023-02-12T17:44:08;61.50;;;47.60;;
9720;SDS011;4899;42.644;23.366;2023-02-12T17:46:34;55.83;;;42.33;;
9720;SDS011;4899;42.644;23.366;2023-02-12T17:49:00;53.83;;;40.67;;
9720;SDS011;4899;42.644;23.366;2023-02-12T17:51:25;52.43;;;39.77;;
9720;SDS011;4899;42.644;23.366;2023-02-12T17:53:51;60.67;;;42.50;;
9720;SDS011;4899;42.644;23.366;2023-02-12T17:56:18;73.37;;;51.90;;
9720;SDS011;4899;42.644;23.366;2023-02-12T17:58:46;63.70;;;45.40;;
9720;SDS011;4899;42.644;23.366;2023-02-12T18:01:13;59.10;;;43.13;;
9720;SDS011;4899;42.644;23.366;2023-02-12T18:03:41;57.27;;;43.57;;
9720;SDS011;4899;42.644;23.366;2023-02-12T18:06:07;54.80;;;41.73;;
9720;SDS011;4899;42.644;23.366;2023-02-12T18:08:35;59.80;;;41.73;;
9720;SDS011;4899;42.644;23.366;2023-02-12T18:11:04;51.13;;;39.80;;
9720;SDS011;4899;42.644;23.366;2023-02-12T18:13:30;51.00;;;40.93;;
9720;SDS011;4899;42.644;23.366;2023-02-12T18:15:56;54.27;;;37.90;;
9720;SDS011;4899;42.644;23.366;2023-02-12T18:18:21;49.10;;;37.30;;
9720;SDS011;4899;42.644;23.366;2023-02-12T18:20:47;51.37;;;36.67;;
9720;SDS011;4899;42.644;23.366;2023-02-12T18:23:12;47.77;;;37.30;;
9720;SDS011;4899;42.644;23.366;2023-02-12T18:25:39;53.90;;;37.57;;
9720;SDS011;4899;42.644;23.366;2023-02-12T18:28:08;48.90;;;35.70;;
9720;SDS011;4899;42.644;23.366;2023-02-12T18:30:35;46.90;;;34.70;;
9720;SDS011;4899;42.644;23.366;2023-02-12T18:33:03;46.20;;;32.50;;